createdAt,value
2018-05-25T00:22:09.871Z,101557.17
2018-05-25T00:25:13.737Z,101558.96
2018-05-25T00:28:16.672Z,101560.80
2018-05-25T00:31:21.023Z,101567.06
2018-05-25T00:34:23.877Z,101555.84
2018-05-25T00:37:28.986Z,101557.30
2018-05-25T00:40:33.334Z,101557.30
2018-05-25T00:43:38.481Z,101555.95
2018-05-25T00:46:46.232Z,101554.08
2018-05-25T00:49:48.966Z,101554.87
2018-05-25T00:52:51.777Z,101548.23
2018-05-25T00:55:55.070Z,101552.48
2018-05-25T00:58:57.756Z,101542.36
2018-05-25T01:02:03.621Z,101545.10
2018-05-25T01:05:07.312Z,101541.98
2018-05-25T01:08:13.353Z,101540.41
2018-05-25T01:11:23.361Z,101541.64
2018-05-25T01:14:26.324Z,101546.78
2018-05-25T01:17:30.428Z,101539.30
2018-05-25T01:20:33.257Z,101546.15
2018-05-25T01:23:37.272Z,101556.75
2018-05-25T01:26:43.803Z,101550.20
2018-05-25T01:29:59.157Z,101554.48
2018-05-25T01:33:01.986Z,101558.97
2018-05-25T01:36:12.964Z,101558.59
2018-05-25T01:39:18.706Z,101567.22
2018-05-25T01:42:22.617Z,101561.58
2018-05-25T01:45:27.646Z,101558.39
2018-05-25T01:48:31.378Z,101562.78
2018-05-25T01:51:34.046Z,101561.03
2018-05-25T01:54:36.885Z,101554.06
2018-05-25T01:57:39.540Z,101553.16
2018-05-25T02:00:45.710Z,101548.07
2018-05-25T02:03:48.342Z,101553.45
2018-05-25T02:06:51.836Z,101552.52
2018-05-25T02:09:54.430Z,101550.05
2018-05-25T02:12:58.237Z,101551.00
2018-05-25T02:16:03.110Z,101554.92
2018-05-25T02:19:05.792Z,101551.29
2018-05-25T02:22:09.563Z,101549.80
2018-05-25T02:25:12.240Z,101546.67
2018-05-25T02:28:14.879Z,101551.00
2018-05-25T02:31:19.143Z,101546.34
2018-05-25T02:34:21.795Z,101539.65
2018-05-25T02:37:28.124Z,101543.87
2018-05-25T02:40:33.105Z,101543.69
2018-05-25T02:43:38.455Z,101534.81
2018-05-25T02:46:41.243Z,101532.30
2018-05-25T02:49:47.871Z,101542.88
2018-05-25T02:52:51.574Z,101541.06
2018-05-25T02:55:55.267Z,101539.56
2018-05-25T02:59:04.397Z,101538.44
2018-05-25T03:02:07.780Z,101551.30
2018-05-25T03:05:19.967Z,101547.70
2018-05-25T03:08:25.688Z,101546.87
2018-05-25T03:11:30.108Z,101542.98
2018-05-25T03:14:34.888Z,101536.56
2018-05-25T03:17:37.635Z,101536.59
2018-05-25T03:20:40.316Z,101533.24
2018-05-25T03:23:45.158Z,101537.75
2018-05-25T03:29:55.541Z,101530.12
2018-05-25T03:33:05.048Z,101531.64
2018-05-25T03:36:09.409Z,101530.70
2018-05-25T03:39:12.149Z,101533.53
2018-05-25T03:42:15.020Z,101532.98
2018-05-25T03:45:21.930Z,101534.71
2018-05-25T03:48:28.309Z,101541.45
2018-05-25T03:51:30.980Z,101539.23
2018-05-25T03:54:33.605Z,101542.42
2018-05-25T03:57:37.247Z,101543.14
2018-05-25T04:00:55.540Z,101541.36
2018-05-25T04:03:58.214Z,101539.66
2018-05-25T04:07:01.105Z,101544.41
2018-05-25T04:10:03.801Z,101541.61
2018-05-25T04:16:42.936Z,101544.12
2018-05-25T04:19:45.514Z,101541.69
2018-05-25T04:22:49.024Z,101546.14
2018-05-25T04:25:51.670Z,101546.87
2018-05-25T04:28:55.070Z,101543.23
2018-05-25T04:32:01.893Z,101539.70
2018-05-25T04:35:04.528Z,101545.09
2018-05-25T04:38:07.290Z,101542.29
2018-05-25T04:41:09.928Z,101546.72
2018-05-25T04:44:12.567Z,101548.63
2018-05-25T04:47:16.514Z,101541.25
2018-05-25T04:50:22.871Z,101539.36
2018-05-25T04:53:27.558Z,101543.47
2018-05-25T04:56:30.258Z,101540.92
2018-05-25T04:59:34.910Z,101543.94
2018-05-25T05:02:39.755Z,101540.38
2018-05-25T05:05:42.353Z,101542.05
2018-05-25T05:08:45.006Z,101537.47
2018-05-25T05:11:48.511Z,101538.41
2018-05-25T05:14:54.530Z,101530.27
2018-05-25T05:17:57.094Z,101542.59
2018-05-25T05:20:59.654Z,101532.08
2018-05-25T05:24:06.998Z,101539.78
2018-05-25T05:27:09.590Z,101538.69
2018-05-25T05:30:12.120Z,101539.99
2018-05-25T05:33:14.648Z,101546.64
2018-05-25T05:36:17.206Z,101543.42
2018-05-25T05:39:19.786Z,101545.56
2018-05-25T05:42:22.395Z,101544.56
2018-05-25T05:45:24.956Z,101539.53
2018-05-25T05:48:27.589Z,101548.73
2018-05-25T05:51:31.051Z,101542.93
2018-05-25T05:54:33.691Z,101550.58
2018-05-25T05:57:36.241Z,101544.52
2018-05-25T06:00:38.809Z,101548.13
2018-05-25T06:03:41.412Z,101548.74
2018-05-25T06:06:43.976Z,101548.25
2018-05-25T06:09:46.548Z,101549.70
2018-05-25T06:12:49.114Z,101541.42
2018-05-25T06:15:51.696Z,101538.92
2018-05-25T06:18:59.107Z,101537.98
2018-05-25T06:22:18.384Z,101542.39
2018-05-25T06:25:20.997Z,101544.09
2018-05-25T06:28:26.454Z,101545.80
2018-05-25T06:31:29.032Z,101543.78
2018-05-25T06:34:31.623Z,101548.94
2018-05-25T06:37:34.229Z,101541.31
2018-05-25T06:40:37.715Z,101535.58
2018-05-25T06:43:45.551Z,101538.87
2018-05-25T06:46:48.192Z,101537.41
2018-05-25T06:49:50.803Z,101537.58
2018-05-25T06:52:54.455Z,101530.45
2018-05-25T06:55:57.904Z,101524.07
2018-05-25T06:59:01.939Z,101515.98
2018-05-25T07:02:05.207Z,101525.83
2018-05-25T07:05:07.827Z,101515.43
2018-05-25T07:08:13.124Z,101517.33
2018-05-25T07:11:16.668Z,101517.12
2018-05-25T07:14:19.453Z,101516.59
2018-05-25T07:17:25.829Z,101518.59
2018-05-25T07:20:28.543Z,101517.77
2018-05-25T07:23:35.519Z,101515.48
2018-05-25T07:26:38.249Z,101509.02
2018-05-25T07:29:41.893Z,101516.02
2018-05-25T07:32:58.377Z,101518.59
2018-05-25T07:36:02.843Z,101519.60
2018-05-25T07:39:12.328Z,101520.27
2018-05-25T07:45:27.510Z,101517.87
2018-05-25T07:48:40.567Z,101519.99
2018-05-25T07:51:43.260Z,101515.36
2018-05-25T07:54:52.124Z,101521.17
2018-05-25T07:57:55.488Z,101527.83
2018-05-25T08:00:58.128Z,101533.00
2018-05-25T08:04:01.106Z,101523.59
2018-05-25T08:07:03.602Z,101520.42
2018-05-25T08:10:06.099Z,101518.64
2018-05-25T08:13:08.589Z,101521.27
2018-05-25T08:16:11.079Z,101524.23
2018-05-25T08:19:13.578Z,101526.05
2018-05-25T08:22:16.062Z,101519.09
2018-05-25T08:25:18.575Z,101512.08
2018-05-25T08:28:21.059Z,101518.33
2018-05-25T08:31:23.563Z,101514.67
2018-05-25T08:34:26.095Z,101516.03
2018-05-25T08:37:28.569Z,101505.49
2018-05-25T08:40:31.053Z,101514.95
2018-05-25T08:43:33.582Z,101510.54
2018-05-25T08:46:36.083Z,101509.16
2018-05-25T08:49:41.146Z,101509.62
2018-05-25T08:52:43.803Z,101506.84
2018-05-25T08:55:58.718Z,101511.35
2018-05-25T09:02:22.404Z,101504.16
2018-05-25T09:05:26.865Z,101503.16
2018-05-25T09:08:37.697Z,101500.00
2018-05-25T09:12:09.727Z,101496.89
2018-05-25T09:15:16.871Z,101504.24
2018-05-25T09:18:19.640Z,101502.78
2018-05-25T09:21:26.738Z,101497.20
2018-05-25T09:24:34.873Z,101500.56
2018-05-25T09:27:50.515Z,101495.67
2018-05-25T09:34:07.518Z,101487.81
2018-05-25T09:37:10.082Z,101492.66
2018-05-25T09:40:13.374Z,101485.16
2018-05-25T09:43:15.984Z,101486.80
2018-05-25T09:46:18.534Z,101487.47
2018-05-25T09:49:21.263Z,101489.77
2018-05-25T09:52:23.930Z,101476.45
2018-05-25T09:55:33.812Z,101473.72
2018-05-25T09:58:39.725Z,101470.73
2018-05-25T10:01:42.328Z,101478.40
2018-05-25T10:04:44.877Z,101472.22
2018-05-25T10:07:48.698Z,101474.84
2018-05-25T10:10:51.276Z,101472.31
2018-05-25T10:13:53.894Z,101463.55
2018-05-25T10:16:56.485Z,101467.36
2018-05-25T10:20:00.732Z,101458.53
2018-05-25T10:23:03.539Z,101464.94
2018-05-25T10:26:08.040Z,101468.09
2018-05-25T10:29:10.821Z,101474.37
2018-05-25T10:32:14.772Z,101461.48
2018-05-25T10:35:17.338Z,101457.70
2018-05-25T10:38:19.857Z,101462.70
2018-05-25T10:41:22.421Z,101457.53
2018-05-25T10:44:24.955Z,101454.56
2018-05-25T10:47:27.546Z,101456.11
2018-05-25T10:50:30.132Z,101460.48
2018-05-25T10:53:32.671Z,101448.77
2018-05-25T10:56:35.205Z,101446.51
2018-05-25T10:59:37.741Z,101440.79
2018-05-25T11:02:40.537Z,101435.94
2018-05-25T11:05:43.087Z,101441.64
2018-05-25T11:08:45.673Z,101440.27
2018-05-25T11:11:48.765Z,101441.80
2018-05-25T11:14:53.322Z,101434.39
2018-05-25T11:17:55.942Z,101428.77
2018-05-25T11:20:58.715Z,101422.97
2018-05-25T11:24:01.233Z,101417.31
2018-05-25T11:27:04.431Z,101418.65
2018-05-25T11:30:06.947Z,101414.42
2018-05-25T11:33:09.448Z,101414.02
2018-05-25T11:36:12.029Z,101415.12
2018-05-25T11:39:14.580Z,101406.25
2018-05-25T11:42:17.088Z,101410.52
2018-05-25T11:45:19.623Z,101403.42
2018-05-25T11:48:22.958Z,101398.89
2018-05-25T11:51:25.532Z,101400.52
2018-05-25T11:54:28.117Z,101396.52
2018-05-25T11:57:30.662Z,101387.22
2018-05-25T12:00:33.237Z,101390.70
2018-05-25T12:03:35.769Z,101388.12
2018-05-25T12:06:38.360Z,101385.02
2018-05-25T12:09:41.023Z,101386.91
2018-05-25T12:12:43.566Z,101388.45
2018-05-25T12:15:46.196Z,101381.61
2018-05-25T12:18:48.760Z,101381.90
2018-05-25T12:21:51.440Z,101370.74
2018-05-25T12:24:54.050Z,101367.67
2018-05-25T12:27:56.598Z,101374.11
2018-05-25T12:30:59.135Z,101370.66
2018-05-25T12:34:04.211Z,101359.92
2018-05-25T12:37:06.812Z,101354.19
2018-05-25T12:40:12.278Z,101366.70
2018-05-25T12:43:20.372Z,101363.08
2018-05-25T12:46:26.642Z,101369.66
2018-05-25T12:56:18.256Z,101358.11
2018-05-25T12:59:20.872Z,101353.40
2018-05-25T13:09:17.102Z,101346.08
2018-05-25T13:12:19.749Z,101343.39
2018-05-25T13:15:22.642Z,101347.08
2018-05-25T13:18:25.208Z,101345.62
2018-05-25T13:21:27.971Z,101350.20
2018-05-25T13:24:30.517Z,101340.64
2018-05-25T13:27:33.045Z,101334.20
2018-05-25T13:30:35.640Z,101335.63
2018-05-25T13:33:38.127Z,101337.62
2018-05-25T13:36:40.648Z,101332.81
2018-05-25T13:39:43.210Z,101334.41
2018-05-25T13:42:45.720Z,101329.26
2018-05-25T13:45:48.761Z,101330.12
2018-05-25T13:48:51.249Z,101331.63
2018-05-25T13:51:53.801Z,101325.08
2018-05-25T13:54:56.318Z,101327.24
2018-05-25T13:57:58.856Z,101322.74
2018-05-25T14:01:01.378Z,101319.10
2018-05-25T14:04:03.861Z,101316.06
2018-05-25T14:07:06.378Z,101317.33
2018-05-25T14:10:08.911Z,101323.45
2018-05-25T14:13:11.463Z,101322.92
2018-05-25T14:16:14.065Z,101320.11
2018-05-25T14:19:16.594Z,101319.95
2018-05-25T14:22:19.124Z,101316.91
2018-05-25T14:25:21.623Z,101315.48
2018-05-25T14:28:24.202Z,101319.09
2018-05-25T14:31:27.319Z,101308.55
2018-05-25T14:34:29.848Z,101312.74
2018-05-25T14:37:32.399Z,101298.84
2018-05-25T14:40:34.935Z,101303.58
2018-05-25T14:43:37.466Z,101299.13
2018-05-25T14:46:39.998Z,101304.31
2018-05-25T14:49:42.615Z,101297.40
2018-05-25T14:52:45.131Z,101295.89
2018-05-25T14:55:47.778Z,101291.22
2018-05-25T14:58:50.306Z,101299.52
2018-05-25T15:01:53.083Z,101288.47
2018-05-25T15:04:55.684Z,101294.28
2018-05-25T15:07:58.227Z,101295.77
2018-05-25T15:11:00.766Z,101297.32
2018-05-25T15:14:03.363Z,101283.81
2018-05-25T15:17:05.995Z,101292.73
2018-05-25T15:20:08.584Z,101292.47
2018-05-25T15:23:11.119Z,101293.59
2018-05-25T15:26:13.657Z,101280.47
2018-05-25T15:29:16.198Z,101279.69
2018-05-25T15:32:18.735Z,101282.56
2018-05-25T15:35:21.325Z,101279.78
2018-05-25T15:38:23.886Z,101282.55
2018-05-25T15:41:26.469Z,101284.33
2018-05-25T15:44:28.976Z,101289.24
2018-05-25T15:47:31.516Z,101285.56
2018-05-25T15:50:34.078Z,101291.84
2018-05-25T15:53:36.627Z,101284.14
2018-05-25T15:56:39.287Z,101289.66
2018-05-25T15:59:41.814Z,101286.41
2018-05-25T16:02:44.384Z,101286.09
2018-05-25T16:05:46.923Z,101286.78
2018-05-25T16:08:49.542Z,101296.11
2018-05-25T16:11:52.110Z,101286.59
2018-05-25T16:14:54.704Z,101286.50
2018-05-25T16:17:57.410Z,101292.54
2018-05-25T16:20:59.971Z,101288.91
2018-05-25T16:24:02.471Z,101283.19
2018-05-25T16:27:05.017Z,101281.73
2018-05-25T16:30:07.541Z,101288.05
2018-05-25T16:33:10.970Z,101284.47
2018-05-25T16:36:13.541Z,101277.87
2018-05-25T16:39:16.201Z,101281.97
2018-05-25T16:42:18.773Z,101275.28
2018-05-25T16:45:21.296Z,101280.43
2018-05-25T16:48:23.936Z,101279.39
2018-05-25T16:51:26.542Z,101281.33
2018-05-25T16:54:29.162Z,101282.27
2018-05-25T16:57:31.739Z,101281.30
2018-05-25T17:00:34.389Z,101282.16
2018-05-25T17:03:37.022Z,101285.33
2018-05-25T17:06:39.845Z,101286.93
2018-05-25T17:09:42.790Z,101281.64
2018-05-25T17:12:45.485Z,101287.25
2018-05-25T17:15:48.030Z,101290.06
2018-05-25T17:18:50.987Z,101291.81
2018-05-25T17:21:53.656Z,101300.57
2018-05-25T17:24:56.959Z,101306.27
2018-05-25T17:27:59.590Z,101316.00
2018-05-25T17:31:02.234Z,101314.20
2018-05-25T17:34:04.827Z,101314.16
2018-05-25T17:37:07.511Z,101321.27
2018-05-25T17:40:10.290Z,101319.62
2018-05-25T17:43:12.860Z,101323.22
2018-05-25T17:46:15.441Z,101331.73
2018-05-25T17:49:18.043Z,101331.23
2018-05-25T17:52:20.715Z,101328.50
2018-05-25T17:55:23.221Z,101331.06
2018-05-25T17:58:25.853Z,101339.20
2018-05-25T18:01:28.464Z,101337.17
2018-05-25T18:04:31.063Z,101343.79
2018-05-25T18:07:33.693Z,101343.92
2018-05-25T18:10:36.421Z,101354.95
2018-05-25T18:13:39.024Z,101353.73
2018-05-25T18:16:45.213Z,101355.81
2018-05-25T18:21:26.180Z,101364.32
2018-05-25T18:24:35.597Z,101363.66
2018-05-25T18:27:45.339Z,101367.75
2018-05-25T18:30:48.196Z,101375.50
2018-05-25T18:33:52.840Z,101369.30
2018-05-25T18:36:55.510Z,101382.31
2018-05-25T18:39:58.495Z,101381.03
2018-05-25T18:43:01.342Z,101388.22
2018-05-25T18:46:04.084Z,101394.34
2018-05-25T18:49:07.369Z,101397.92
2018-05-25T18:52:09.990Z,101408.63
2018-05-25T18:55:14.726Z,101405.84
2018-05-25T18:58:18.004Z,101412.28
2018-05-25T19:01:22.363Z,101416.77
2018-05-25T19:04:26.041Z,101422.77
2018-05-25T19:07:29.983Z,101428.70
2018-05-25T19:10:32.732Z,101432.45
2018-05-25T19:13:38.093Z,101430.09
2018-05-25T19:16:43.590Z,101432.32
2018-05-25T19:19:47.903Z,101436.27
2018-05-25T19:22:50.711Z,101439.88
2018-05-25T19:25:53.715Z,101445.01
2018-05-25T19:28:57.050Z,101443.89
2018-05-25T19:32:00.054Z,101438.81
2018-05-25T19:35:02.693Z,101445.98
2018-05-25T19:38:05.408Z,101449.48
2018-05-25T19:41:08.097Z,101448.56
2018-05-25T19:44:10.694Z,101446.31
2018-05-25T19:47:13.852Z,101448.77
2018-05-25T19:50:16.871Z,101456.21
2018-05-25T19:53:19.644Z,101451.77
2018-05-25T19:56:22.367Z,101453.23
2018-05-25T19:59:25.061Z,101449.56
2018-05-25T20:02:27.696Z,101450.27
2018-05-25T20:05:30.287Z,101454.53
2018-05-25T20:08:33.002Z,101442.90
2018-05-25T20:11:37.047Z,101451.77
2018-05-25T20:14:39.813Z,101447.91
2018-05-25T20:17:42.532Z,101445.80
2018-05-25T20:20:45.548Z,101451.27
2018-05-25T20:23:48.219Z,101452.48
2018-05-25T20:26:50.817Z,101452.19
2018-05-25T20:29:53.567Z,101455.79
2018-05-25T20:32:56.212Z,101457.82
2018-05-25T20:35:58.921Z,101460.11
2018-05-25T20:39:01.608Z,101454.64
2018-05-25T20:42:04.253Z,101452.56
2018-05-25T20:45:06.868Z,101452.42
2018-05-25T20:48:09.567Z,101462.20
2018-05-25T20:51:12.256Z,101455.56
2018-05-25T20:54:14.923Z,101469.03
2018-05-25T20:57:17.539Z,101464.16
2018-05-25T21:00:20.219Z,101468.77
2018-05-25T21:03:22.823Z,101466.39
2018-05-25T21:06:25.524Z,101471.55
2018-05-25T21:09:28.089Z,101473.32
2018-05-25T21:12:30.672Z,101476.61
2018-05-25T21:15:33.342Z,101471.11
2018-05-25T21:18:35.983Z,101473.11
2018-05-25T21:21:38.578Z,101477.36
2018-05-25T21:24:41.178Z,101484.84
2018-05-25T21:27:43.744Z,101490.60
2018-05-25T21:30:46.395Z,101490.52
2018-05-25T21:33:48.967Z,101495.78
2018-05-25T21:36:51.617Z,101499.22
2018-05-25T21:39:54.193Z,101497.06
2018-05-25T21:42:56.796Z,101500.67
2018-05-25T21:45:59.362Z,101499.97
2018-05-25T21:49:01.974Z,101503.62
2018-05-25T21:52:04.502Z,101502.27
2018-05-25T21:55:07.063Z,101506.54
2018-05-25T21:58:09.615Z,101506.30
2018-05-25T22:01:12.134Z,101517.52
2018-05-25T22:04:14.663Z,101513.11
2018-05-25T22:07:17.183Z,101511.63
2018-05-25T22:10:19.734Z,101512.80
2018-05-25T22:13:22.253Z,101524.48
2018-05-25T22:16:24.850Z,101519.64
2018-05-25T22:19:27.317Z,101518.11
2018-05-25T22:22:29.844Z,101524.11
2018-05-25T22:25:32.454Z,101519.78
2018-05-25T22:28:34.995Z,101519.72
2018-05-25T22:31:37.575Z,101516.03
2018-05-25T22:34:40.130Z,101515.80
2018-05-25T22:37:42.664Z,101522.31
2018-05-25T22:40:45.163Z,101521.47
2018-05-25T22:43:59.656Z,101521.14
2018-05-25T22:47:14.109Z,101519.24
2018-05-25T22:50:28.490Z,101521.23
2018-05-25T22:53:35.957Z,101520.03
2018-05-25T22:56:38.545Z,101517.03
2018-05-25T22:59:41.075Z,101520.08
2018-05-25T23:02:43.662Z,101518.37
2018-05-25T23:05:46.205Z,101514.77
2018-05-25T23:08:48.817Z,101511.11
2018-05-25T23:11:51.356Z,101503.74
2018-05-25T23:14:53.914Z,101502.66
2018-05-25T23:17:56.486Z,101506.82
2018-05-25T23:20:59.075Z,101503.94
2018-05-25T23:24:01.598Z,101502.74
2018-05-25T23:27:04.182Z,101502.89
2018-05-25T23:30:06.743Z,101503.25
2018-05-25T23:33:09.263Z,101502.89
2018-05-25T23:36:11.749Z,101506.53
2018-05-25T23:39:14.257Z,101512.03
2018-05-25T23:42:16.770Z,101506.23
2018-05-25T23:45:19.327Z,101506.34
2018-05-25T23:48:21.836Z,101509.95
2018-05-25T23:51:24.349Z,101506.85
2018-05-25T23:54:26.920Z,101509.58
2018-05-25T23:57:29.461Z,101504.70
